createdAt,value
2023-04-10T00:00:02.045Z,8
2023-04-10T00:01:02.010Z,8
2023-04-10T00:02:03.064Z,8
2023-04-10T00:03:03.272Z,8
2023-04-10T00:04:03.270Z,8
2023-04-10T00:05:02.925Z,8
2023-04-10T00:06:02.863Z,8
2023-04-10T00:07:01.837Z,8
2023-04-10T00:08:02.395Z,8
2023-04-10T00:09:02.056Z,8
2023-04-10T00:10:01.819Z,8
2023-04-10T00:11:02.267Z,8
2023-04-10T00:12:02.637Z,8
2023-04-10T00:13:02.248Z,8
2023-04-10T00:14:02.131Z,8
2023-04-10T00:15:02.161Z,8
2023-04-10T00:16:02.725Z,8
2023-04-10T00:17:03.038Z,8
2023-04-10T00:18:02.875Z,7
2023-04-10T00:19:02.445Z,7
2023-04-10T00:20:02.878Z,7
2023-04-10T00:21:02.937Z,7
2023-04-10T00:22:02.490Z,7
2023-04-10T00:23:02.297Z,7
2023-04-10T00:24:02.049Z,7
2023-04-10T00:25:01.776Z,7
2023-04-10T00:26:02.175Z,7
2023-04-10T00:27:02.054Z,7
2023-04-10T00:28:02.552Z,7
2023-04-10T00:29:02.582Z,7
2023-04-10T00:30:02.112Z,7
2023-04-10T00:31:02.584Z,7
2023-04-10T00:32:02.792Z,7
2023-04-10T00:33:02.271Z,7
2023-04-10T00:34:02.209Z,7
2023-04-10T00:35:02.178Z,7
2023-04-10T00:36:02.740Z,7
2023-04-10T00:37:02.909Z,7
2023-04-10T00:38:02.572Z,7
2023-04-10T00:39:02.340Z,7
2023-04-10T00:40:02.714Z,7
2023-04-10T00:41:02.464Z,7
2023-04-10T00:42:02.040Z,7
2023-04-10T00:43:02.101Z,7
2023-04-10T00:44:02.582Z,7
2023-04-10T00:45:02.451Z,7
2023-04-10T00:46:02.249Z,7
2023-04-10T00:47:02.192Z,7
2023-04-10T00:48:02.368Z,7
2023-04-10T00:49:02.468Z,7
2023-04-10T00:50:02.618Z,7
2023-04-10T00:51:02.211Z,7
2023-04-10T00:52:02.622Z,7
2023-04-10T00:53:02.379Z,7
2023-04-10T00:54:02.478Z,7
2023-04-10T00:55:02.360Z,7
2023-04-10T00:56:02.248Z,7
2023-04-10T00:57:02.166Z,7
2023-04-10T00:58:02.102Z,7
2023-04-10T00:59:01.827Z,7
2023-04-10T01:00:01.977Z,7
2023-04-10T01:01:01.907Z,7
2023-04-10T01:02:02.174Z,7
2023-04-10T01:03:02.350Z,7
2023-04-10T01:04:02.151Z,7
2023-04-10T01:05:01.983Z,7
2023-04-10T01:06:01.883Z,7
2023-04-10T01:07:02.811Z,7
2023-04-10T01:08:02.554Z,7
2023-04-10T01:09:02.343Z,7
2023-04-10T01:10:02.915Z,7
2023-04-10T01:11:02.503Z,7
2023-04-10T01:12:02.088Z,7
2023-04-10T01:13:01.972Z,7
2023-04-10T01:14:02.445Z,7
2023-04-10T01:15:02.560Z,7
2023-04-10T01:16:02.196Z,7
2023-04-10T01:17:02.890Z,7
2023-04-10T01:18:02.588Z,7
2023-04-10T01:19:03.090Z,7
2023-04-10T01:20:03.142Z,7
2023-04-10T01:21:02.857Z,7
2023-04-10T01:22:02.496Z,7
2023-04-10T01:23:02.301Z,7
2023-04-10T01:24:02.790Z,7
2023-04-10T01:25:02.432Z,7
2023-04-10T01:26:02.231Z,7
2023-04-10T01:27:02.787Z,7
2023-04-10T01:28:02.631Z,7
2023-04-10T01:29:02.909Z,7
2023-04-10T01:30:03.061Z,7
2023-04-10T01:31:02.905Z,7
2023-04-10T01:32:01.981Z,7
2023-04-10T01:33:02.147Z,7
2023-04-10T01:34:02.342Z,7
2023-04-10T01:35:01.933Z,7
2023-04-10T01:36:01.760Z,7
2023-04-10T01:37:02.174Z,7
2023-04-10T01:38:02.073Z,7
2023-04-10T01:39:02.088Z,7
2023-04-10T01:40:02.128Z,7
2023-04-10T01:41:01.950Z,7
2023-04-10T01:42:02.287Z,7
2023-04-10T01:43:02.752Z,7
2023-04-10T01:44:02.320Z,7
2023-04-10T01:45:02.108Z,7
2023-04-10T01:46:02.447Z,7
2023-04-10T01:47:01.767Z,7
2023-04-10T01:48:01.970Z,7
2023-04-10T01:49:01.970Z,7
2023-04-10T01:50:02.097Z,7
2023-04-10T01:51:02.285Z,7
2023-04-10T01:52:02.560Z,7
2023-04-10T01:53:02.327Z,7
2023-04-10T01:54:03.482Z,7
2023-04-10T01:55:02.499Z,7
2023-04-10T01:56:02.293Z,7
2023-04-10T01:57:03.072Z,6
2023-04-10T01:58:03.029Z,7
2023-04-10T01:59:03.094Z,6
2023-04-10T02:00:02.549Z,6
2023-04-10T02:01:02.536Z,6
2023-04-10T02:02:03.221Z,6
2023-04-10T02:03:03.292Z,6
2023-04-10T02:04:03.043Z,6
2023-04-10T02:05:02.818Z,6
2023-04-10T02:06:02.774Z,6
2023-04-10T02:07:03.558Z,6
2023-04-10T02:08:03.243Z,6
2023-04-10T02:09:03.381Z,6
2023-04-10T02:10:03.336Z,6
2023-04-10T02:11:03.061Z,6
2023-04-10T02:12:03.544Z,6
2023-04-10T02:13:03.241Z,6
2023-04-10T02:14:03.793Z,6
2023-04-10T02:15:03.431Z,6
2023-04-10T02:16:04.443Z,6
2023-04-10T02:17:02.966Z,6
2023-04-10T02:18:02.803Z,6
2023-04-10T02:19:02.678Z,6
2023-04-10T02:20:02.750Z,6
2023-04-10T02:21:02.946Z,6
2023-04-10T02:22:03.188Z,6
2023-04-10T02:23:03.803Z,6
2023-04-10T02:24:03.391Z,6
2023-04-10T02:25:03.604Z,6
2023-04-10T02:26:03.451Z,6
2023-04-10T02:27:02.731Z,6
2023-04-10T02:28:02.426Z,6
2023-04-10T02:29:02.888Z,6
2023-04-10T02:30:02.546Z,6
2023-04-10T02:31:02.637Z,6
2023-04-10T02:32:02.945Z,6
2023-04-10T02:33:02.941Z,6
2023-04-10T02:34:02.803Z,6
2023-04-10T02:35:03.304Z,6
2023-04-10T02:36:02.945Z,6
2023-04-10T02:37:03.176Z,6
2023-04-10T02:38:03.061Z,6
2023-04-10T02:39:03.505Z,6
2023-04-10T02:40:03.594Z,6
2023-04-10T02:41:03.439Z,6
2023-04-10T02:42:02.947Z,6
2023-04-10T02:43:02.601Z,6
2023-04-10T02:44:02.470Z,6
2023-04-10T02:45:03.030Z,6
2023-04-10T02:46:02.625Z,6
2023-04-10T02:47:03.200Z,6
2023-04-10T02:48:02.849Z,6
2023-04-10T02:49:02.934Z,6
2023-04-10T02:50:02.839Z,6
2023-04-10T02:51:02.698Z,6
2023-04-10T02:52:02.746Z,6
2023-04-10T02:53:03.107Z,6
2023-04-10T02:54:03.042Z,6
2023-04-10T02:55:02.994Z,6
2023-04-10T02:56:02.903Z,6
2023-04-10T02:57:02.874Z,6
2023-04-10T02:58:02.525Z,6
2023-04-10T02:59:02.658Z,6
2023-04-10T03:00:02.775Z,6
2023-04-10T03:01:02.599Z,6
2023-04-10T03:02:03.199Z,6
2023-04-10T03:03:03.036Z,6
2023-04-10T03:04:02.773Z,6
2023-04-10T03:05:02.620Z,6
2023-04-10T03:06:03.049Z,6
2023-04-10T03:07:02.437Z,6
2023-04-10T03:08:02.207Z,6
2023-04-10T03:09:02.010Z,6
2023-04-10T03:10:02.379Z,6
2023-04-10T03:11:02.276Z,6
2023-04-10T03:12:02.727Z,6
2023-04-10T03:13:02.191Z,6
2023-04-10T03:14:02.636Z,6
2023-04-10T03:15:02.620Z,6
2023-04-10T03:16:02.510Z,6
2023-04-10T03:17:02.981Z,6
2023-04-10T03:18:02.987Z,6
2023-04-10T03:19:02.476Z,6
2023-04-10T03:20:02.505Z,6
2023-04-10T03:21:02.995Z,6
2023-04-10T03:22:01.939Z,6
2023-04-10T03:23:01.790Z,6
2023-04-10T03:24:02.312Z,6
2023-04-10T03:25:01.639Z,6
2023-04-10T03:26:02.229Z,6
2023-04-10T03:27:02.377Z,6
2023-04-10T03:28:02.204Z,6
2023-04-10T03:29:02.062Z,6
2023-04-10T03:30:02.049Z,6
2023-04-10T03:31:01.944Z,6
2023-04-10T03:32:02.485Z,6
2023-04-10T03:33:02.268Z,6
2023-04-10T03:34:02.252Z,6
2023-04-10T03:35:02.275Z,6
2023-04-10T03:36:02.216Z,6
2023-04-10T03:37:02.645Z,6
2023-04-10T03:38:02.309Z,6
2023-04-10T03:39:02.654Z,6
2023-04-10T03:40:02.216Z,6
2023-04-10T03:41:02.576Z,6
2023-04-10T03:42:01.471Z,6
2023-04-10T03:43:01.610Z,6
2023-04-10T03:44:01.553Z,6
2023-04-10T03:45:01.431Z,6
2023-04-10T03:46:01.985Z,6
2023-04-10T03:47:01.646Z,6
2023-04-10T03:48:02.265Z,6
2023-04-10T03:49:01.914Z,6
2023-04-10T03:50:01.754Z,6
2023-04-10T03:51:02.030Z,6
2023-04-10T03:52:01.841Z,6
2023-04-10T03:53:01.760Z,6
2023-04-10T03:54:02.314Z,6
2023-04-10T03:55:01.937Z,6
2023-04-10T03:56:01.687Z,6
2023-04-10T03:57:02.626Z,6
2023-04-10T03:58:02.473Z,6
2023-04-10T03:59:02.349Z,6
2023-04-10T04:00:02.226Z,6
2023-04-10T04:01:02.198Z,6
2023-04-10T04:02:02.740Z,6
2023-04-10T04:03:03.573Z,5
2023-04-10T04:04:02.738Z,6
2023-04-10T04:05:02.748Z,6
2023-04-10T04:06:02.672Z,6
2023-04-10T04:07:02.359Z,6
2023-04-10T04:08:02.687Z,6
2023-04-10T04:09:02.467Z,6
2023-04-10T04:10:02.394Z,6
2023-04-10T04:11:02.308Z,6
2023-04-10T04:12:02.865Z,6
2023-04-10T04:13:02.796Z,6
2023-04-10T04:14:02.698Z,6
2023-04-10T04:15:03.244Z,6
2023-04-10T04:16:03.176Z,6
2023-04-10T04:17:02.114Z,6
2023-04-10T04:18:01.914Z,6
2023-04-10T04:19:02.504Z,7
2023-04-10T04:20:02.150Z,7
2023-04-10T04:21:01.970Z,7
2023-04-10T04:22:02.461Z,7
2023-04-10T04:23:02.939Z,7
2023-04-10T04:24:02.503Z,7
2023-04-10T04:25:02.303Z,7
2023-04-10T04:26:02.862Z,7
2023-04-10T04:27:02.542Z,7
2023-04-10T04:28:02.683Z,7
2023-04-10T04:29:02.834Z,7
2023-04-10T04:30:02.686Z,7
2023-04-10T04:31:02.649Z,7
2023-04-10T04:32:02.200Z,7
2023-04-10T04:33:02.041Z,7
2023-04-10T04:34:02.618Z,7
2023-04-10T04:35:02.126Z,8
2023-04-10T04:36:02.186Z,8
2023-04-10T04:37:02.919Z,7
2023-04-10T04:38:02.699Z,8
2023-04-10T04:39:02.764Z,7
2023-04-10T04:40:02.863Z,8
2023-04-10T04:41:02.593Z,8
2023-04-10T04:42:02.144Z,7
2023-04-10T04:43:02.036Z,8
2023-04-10T04:44:02.016Z,8
2023-04-10T04:45:01.949Z,8
2023-04-10T04:46:02.377Z,8
2023-04-10T04:47:02.786Z,8
2023-04-10T04:48:02.493Z,8
2023-04-10T04:49:03.021Z,8
2023-04-10T04:50:02.667Z,8
2023-04-10T04:51:02.595Z,8
2023-04-10T04:52:02.120Z,8
2023-04-10T04:53:02.125Z,8
2023-04-10T04:54:01.766Z,8
2023-04-10T04:55:01.811Z,8
2023-04-10T04:56:02.440Z,8
2023-04-10T04:57:02.837Z,8
2023-04-10T04:58:02.752Z,8
2023-04-10T04:59:02.601Z,8
2023-04-10T05:00:02.531Z,8
2023-04-10T05:01:02.779Z,8
2023-04-10T05:02:02.796Z,8
2023-04-10T05:03:02.092Z,8
2023-04-10T05:04:02.558Z,8
2023-04-10T05:05:02.490Z,7
2023-04-10T05:06:01.907Z,8
2023-04-10T05:07:02.940Z,7
2023-04-10T05:08:02.662Z,8
2023-04-10T05:09:02.596Z,7
2023-04-10T05:10:02.597Z,7
2023-04-10T05:11:02.424Z,7
2023-04-10T05:12:03.114Z,7
2023-04-10T05:13:03.048Z,7
2023-04-10T05:14:02.936Z,7
2023-04-10T05:15:02.950Z,7
2023-04-10T05:16:03.218Z,7
2023-04-10T05:17:03.646Z,7
2023-04-10T05:18:02.824Z,7
2023-04-10T05:19:02.699Z,7
2023-04-10T05:20:02.731Z,7
2023-04-10T05:21:02.759Z,7
2023-04-10T05:22:03.154Z,7
2023-04-10T05:23:02.741Z,7
2023-04-10T05:24:03.216Z,7
2023-04-10T05:25:03.250Z,7
2023-04-10T05:26:02.936Z,7
2023-04-10T05:27:02.631Z,7
2023-04-10T05:28:02.651Z,7
2023-04-10T05:29:02.374Z,7
2023-04-10T05:30:02.374Z,7
2023-04-10T05:31:02.433Z,7
2023-04-10T05:32:03.189Z,7
2023-04-10T05:33:02.870Z,7
2023-04-10T05:34:02.904Z,7
2023-04-10T05:35:02.867Z,7
2023-04-10T05:36:02.876Z,7
2023-04-10T05:37:02.497Z,7
2023-04-10T05:38:02.276Z,7
2023-04-10T05:39:02.176Z,7
2023-04-10T05:40:02.092Z,7
2023-04-10T05:41:01.972Z,7
2023-04-10T05:42:02.599Z,7
2023-04-10T05:43:02.375Z,7
2023-04-10T05:44:02.352Z,7
2023-04-10T05:45:02.342Z,7
2023-04-10T05:46:02.336Z,7
2023-04-10T05:47:02.909Z,7
2023-04-10T05:48:02.688Z,7
2023-04-10T05:49:02.753Z,7
2023-04-10T05:50:02.750Z,7
2023-04-10T05:51:02.650Z,7
2023-04-10T05:52:01.613Z,7
2023-04-10T05:53:02.137Z,7
2023-04-10T05:54:01.971Z,7
2023-04-10T05:55:01.888Z,7
2023-04-10T05:56:01.926Z,7
2023-04-10T05:57:02.039Z,7
2023-04-10T05:58:01.969Z,7
2023-04-10T05:59:02.533Z,7
2023-04-10T06:00:02.237Z,7
2023-04-10T06:01:02.257Z,7
2023-04-10T06:02:02.354Z,7
2023-04-10T06:03:02.491Z,7
2023-04-10T06:04:02.580Z,7
2023-04-10T06:05:02.733Z,7
2023-04-10T06:06:02.625Z,7
2023-04-10T06:07:02.641Z,7
2023-04-10T06:08:03.115Z,7
2023-04-10T06:09:03.120Z,7
2023-04-10T06:10:03.132Z,7
2023-04-10T06:11:03.092Z,7
2023-04-10T06:12:02.100Z,7
2023-04-10T06:13:02.555Z,7
2023-04-10T06:14:02.636Z,7
2023-04-10T06:15:02.654Z,7
2023-04-10T06:16:02.384Z,7
2023-04-10T06:17:02.396Z,7
2023-04-10T06:18:02.459Z,7
2023-04-10T06:19:02.737Z,7
2023-04-10T06:20:02.397Z,7
2023-04-10T06:21:02.418Z,7
2023-04-10T06:22:02.064Z,7
2023-04-10T06:23:01.978Z,7
2023-04-10T06:24:01.973Z,7
2023-04-10T06:25:02.551Z,7
2023-04-10T06:26:02.486Z,7
2023-04-10T06:27:02.262Z,7
2023-04-10T06:28:02.198Z,7
2023-04-10T06:29:02.532Z,7
2023-04-10T06:30:02.611Z,7
2023-04-10T06:31:02.613Z,7
2023-04-10T06:32:02.570Z,7
2023-04-10T06:33:02.954Z,7
2023-04-10T06:34:02.774Z,7
2023-04-10T06:35:02.541Z,7
2023-04-10T06:36:02.474Z,7
2023-04-10T06:37:02.818Z,7
2023-04-10T06:38:02.801Z,7
2023-04-10T06:39:03.021Z,7
2023-04-10T06:40:02.975Z,7
2023-04-10T06:41:02.780Z,7
2023-04-10T06:42:02.169Z,7
2023-04-10T06:43:02.170Z,7
2023-04-10T06:44:03.719Z,7
2023-04-10T06:45:02.366Z,7
2023-04-10T06:46:02.339Z,7
2023-04-10T06:47:02.387Z,7
2023-04-10T06:48:02.574Z,7
2023-04-10T06:49:02.737Z,7
2023-04-10T06:50:02.458Z,7
2023-04-10T06:51:02.503Z,7
2023-04-10T06:52:02.541Z,7
2023-04-10T06:53:02.403Z,7
2023-04-10T06:54:02.433Z,7
2023-04-10T06:55:02.507Z,7
2023-04-10T06:56:03.830Z,7
2023-04-10T06:57:02.906Z,7
2023-04-10T06:58:03.050Z,7
2023-04-10T06:59:03.137Z,7
2023-04-10T07:00:03.328Z,7
2023-04-10T07:01:02.916Z,7
2023-04-10T07:02:03.163Z,7
2023-04-10T07:03:03.108Z,7
2023-04-10T07:04:03.265Z,7
2023-04-10T07:05:03.066Z,7
2023-04-10T07:06:03.507Z,7
2023-04-10T07:07:02.395Z,7
2023-04-10T07:08:02.302Z,7
2023-04-10T07:09:02.241Z,7
2023-04-10T07:10:02.336Z,7
2023-04-10T07:11:02.247Z,7
2023-04-10T07:12:02.772Z,7
2023-04-10T07:13:03.022Z,7
2023-04-10T07:14:02.909Z,7
2023-04-10T07:15:02.856Z,8
2023-04-10T07:16:02.924Z,7
2023-04-10T07:17:03.055Z,8
2023-04-10T07:18:03.012Z,8
2023-04-10T07:19:03.453Z,7
2023-04-10T07:20:02.898Z,8
2023-04-10T07:21:02.971Z,8
2023-04-10T07:22:03.127Z,8
2023-04-10T07:23:03.611Z,8
2023-04-10T07:24:03.535Z,8
2023-04-10T07:25:02.921Z,8
2023-04-10T07:26:02.980Z,8
2023-04-10T07:27:02.942Z,8
2023-04-10T07:28:02.754Z,8
2023-04-10T07:29:02.734Z,8
2023-04-10T07:30:02.763Z,8
2023-04-10T07:31:02.485Z,8
2023-04-10T07:32:03.250Z,8
2023-04-10T07:33:03.220Z,8
2023-04-10T07:34:03.027Z,8
2023-04-10T07:35:02.970Z,8
2023-04-10T07:36:03.378Z,8
2023-04-10T07:37:02.573Z,8
2023-04-10T07:38:02.541Z,8
2023-04-10T07:39:02.479Z,8
2023-04-10T07:40:02.602Z,8
2023-04-10T07:41:02.639Z,8
2023-04-10T07:42:02.703Z,8
2023-04-10T07:43:02.812Z,8
2023-04-10T07:44:02.551Z,8
2023-04-10T07:45:02.595Z,8
2023-04-10T07:46:02.840Z,8
2023-04-10T07:47:02.926Z,8
2023-04-10T07:48:02.920Z,8
2023-04-10T07:49:02.902Z,8
2023-04-10T07:50:02.937Z,8
2023-04-10T07:51:03.155Z,8
2023-04-10T07:52:03.008Z,8
2023-04-10T07:53:03.179Z,8
2023-04-10T07:54:02.814Z,8
2023-04-10T07:55:02.833Z,8
2023-04-10T07:56:02.744Z,8
2023-04-10T07:57:02.602Z,8
2023-04-10T07:58:02.583Z,8
2023-04-10T07:59:02.711Z,8
2023-04-10T08:00:02.683Z,8
2023-04-10T08:01:02.343Z,8
2023-04-10T08:02:03.176Z,8
2023-04-10T08:03:03.330Z,8
2023-04-10T08:04:05.588Z,8
2023-04-10T08:05:03.014Z,8
2023-04-10T08:06:02.972Z,8
2023-04-10T08:07:03.510Z,8
2023-04-10T08:08:03.601Z,8
2023-04-10T08:09:03.660Z,8
2023-04-10T08:10:03.718Z,8
2023-04-10T08:11:03.716Z,8
2023-04-10T08:12:02.834Z,8
2023-04-10T08:13:02.721Z,8
2023-04-10T08:14:02.617Z,8
2023-04-10T08:15:02.644Z,8
2023-04-10T08:16:02.713Z,8
2023-04-10T08:17:03.424Z,8
2023-04-10T08:18:03.222Z,8
2023-04-10T08:19:03.302Z,8
2023-04-10T08:20:03.431Z,8
2023-04-10T08:21:03.406Z,8
2023-04-10T08:22:03.343Z,8
2023-04-10T08:23:19.132Z,8
2023-04-10T08:24:03.403Z,8
2023-04-10T08:25:03.379Z,9
2023-04-10T08:26:03.211Z,9
2023-04-10T08:27:02.846Z,9
2023-04-10T08:28:02.682Z,9
2023-04-10T08:29:02.803Z,9
2023-04-10T08:30:02.583Z,9
2023-04-10T08:31:02.718Z,9
2023-04-10T08:32:03.456Z,9
2023-04-10T08:33:03.363Z,9
2023-04-10T08:34:03.447Z,9
2023-04-10T08:35:03.591Z,9
2023-04-10T08:36:03.259Z,9
2023-04-10T08:37:02.461Z,9
2023-04-10T08:38:13.446Z,9
2023-04-10T08:39:02.596Z,9
2023-04-10T08:40:02.901Z,9
2023-04-10T08:41:02.976Z,9
2023-04-10T08:42:03.670Z,9
2023-04-10T08:43:04.010Z,9
2023-04-10T08:44:03.756Z,9
2023-04-10T08:45:03.366Z,9
2023-04-10T08:46:03.252Z,9
2023-04-10T08:47:03.117Z,9
2023-04-10T08:48:03.091Z,9
2023-04-10T08:49:02.995Z,9
2023-04-10T08:50:02.708Z,9
2023-04-10T08:51:02.817Z,9
2023-04-10T08:52:03.621Z,9
2023-04-10T08:53:03.059Z,9
2023-04-10T08:54:03.257Z,9
2023-04-10T08:55:03.329Z,9
2023-04-10T08:56:03.289Z,9
2023-04-10T08:57:03.649Z,9
2023-04-10T08:58:03.115Z,9
2023-04-10T08:59:03.136Z,9
2023-04-10T09:00:12.770Z,9
2023-04-10T09:01:03.182Z,9
2023-04-10T09:02:03.001Z,9
2023-04-10T09:03:02.463Z,9
2023-04-10T09:04:02.563Z,9
2023-04-10T09:05:02.893Z,9
2023-04-10T09:06:02.590Z,9
2023-04-10T09:07:03.375Z,9
2023-04-10T09:08:03.157Z,9
2023-04-10T09:09:03.286Z,9
2023-04-10T09:10:02.973Z,9
2023-04-10T09:11:02.677Z,9
2023-04-10T09:12:02.385Z,9
2023-04-10T09:13:02.444Z,9
2023-04-10T09:14:02.558Z,9
2023-04-10T09:15:02.801Z,9
2023-04-10T09:16:02.847Z,9
2023-04-10T09:17:02.715Z,9
2023-04-10T09:18:02.698Z,10
2023-04-10T09:19:04.986Z,10
2023-04-10T09:20:02.914Z,10
2023-04-10T09:21:02.796Z,10
2023-04-10T09:22:02.589Z,10
2023-04-10T09:23:02.660Z,10
2023-04-10T09:24:02.695Z,10
2023-04-10T09:25:03.105Z,10
2023-04-10T09:26:03.080Z,10
2023-04-10T09:27:01.957Z,10
2023-04-10T09:28:02.178Z,10
2023-04-10T09:29:02.175Z,10
2023-04-10T09:30:02.164Z,10
2023-04-10T09:31:02.467Z,10
2023-04-10T09:32:02.407Z,10
2023-04-10T09:33:03.756Z,10
2023-04-10T09:34:02.345Z,10
2023-04-10T09:35:02.495Z,10
2023-04-10T09:36:02.367Z,10
2023-04-10T09:37:02.070Z,10
2023-04-10T09:38:02.033Z,10
2023-04-10T09:39:02.116Z,10
2023-04-10T09:40:02.046Z,10
2023-04-10T09:41:02.086Z,10
2023-04-10T09:42:02.217Z,10
2023-04-10T09:43:02.217Z,10
2023-04-10T09:44:02.291Z,10
2023-04-10T09:45:02.345Z,10
2023-04-10T09:46:02.323Z,10
2023-04-10T09:47:02.606Z,10
2023-04-10T09:48:02.566Z,10
2023-04-10T09:49:02.566Z,10
2023-04-10T09:50:02.613Z,10
2023-04-10T09:51:02.590Z,10
2023-04-10T09:52:02.851Z,10
2023-04-10T09:53:02.825Z,10
2023-04-10T09:54:02.389Z,10
2023-04-10T09:55:02.511Z,10
2023-04-10T09:56:02.478Z,10
2023-04-10T09:57:02.282Z,10
2023-04-10T09:58:02.439Z,10
2023-04-10T09:59:02.446Z,10
2023-04-10T10:00:02.591Z,10
2023-04-10T10:01:02.529Z,10
2023-04-10T10:02:02.764Z,10
2023-04-10T10:03:02.849Z,10
2023-04-10T10:04:02.874Z,10
2023-04-10T10:05:02.891Z,10
2023-04-10T10:06:02.951Z,10
2023-04-10T10:07:02.804Z,10
2023-04-10T10:08:02.968Z,10
2023-04-10T10:09:03.035Z,10
2023-04-10T10:10:03.088Z,10
2023-04-10T10:11:03.030Z,10
2023-04-10T10:12:03.015Z,10
2023-04-10T10:13:02.953Z,10
2023-04-10T10:14:03.000Z,10
2023-04-10T10:15:03.100Z,10
2023-04-10T10:16:03.210Z,10
2023-04-10T10:17:03.214Z,10
2023-04-10T10:18:03.346Z,10
2023-04-10T10:19:03.434Z,10
2023-04-10T10:20:03.253Z,11
2023-04-10T10:21:03.338Z,11
2023-04-10T10:22:03.364Z,11
2023-04-10T10:23:03.430Z,11
2023-04-10T10:24:03.537Z,11
2023-04-10T10:25:03.476Z,11
2023-04-10T10:26:03.955Z,11
2023-04-10T10:27:03.479Z,11
2023-04-10T10:28:03.491Z,11
2023-04-10T10:29:03.412Z,11
2023-04-10T10:30:11.918Z,11
2023-04-10T10:31:03.471Z,11
2023-04-10T10:32:03.517Z,11
2023-04-10T10:33:03.992Z,11
2023-04-10T10:34:03.937Z,11
2023-04-10T10:35:03.742Z,11
2023-04-10T10:36:03.677Z,11
2023-04-10T10:37:02.887Z,11
2023-04-10T10:38:02.982Z,11
2023-04-10T10:39:02.695Z,11
2023-04-10T10:40:02.832Z,11
2023-04-10T10:41:02.717Z,11
2023-04-10T10:42:03.313Z,11
2023-04-10T10:43:03.390Z,11
2023-04-10T10:44:03.336Z,11
2023-04-10T10:45:03.424Z,11
2023-04-10T10:46:03.597Z,11
2023-04-10T10:47:03.516Z,11
2023-04-10T10:48:03.796Z,11
2023-04-10T10:49:03.857Z,11
2023-04-10T10:50:03.691Z,11
2023-04-10T10:51:03.714Z,11
2023-04-10T10:52:02.844Z,11
2023-04-10T10:53:02.917Z,11
2023-04-10T10:54:02.983Z,11
2023-04-10T10:55:02.935Z,11
2023-04-10T10:56:02.951Z,11
2023-04-10T10:57:02.922Z,11
2023-04-10T10:58:03.010Z,11
2023-04-10T10:59:03.127Z,11
2023-04-10T11:00:03.176Z,11
2023-04-10T11:01:03.122Z,11
2023-04-10T11:02:03.265Z,11
2023-04-10T11:03:03.516Z,11
2023-04-10T11:04:03.418Z,11
2023-04-10T11:05:02.941Z,11
2023-04-10T11:06:03.065Z,11
2023-04-10T11:07:03.218Z,11
2023-04-10T11:08:03.262Z,11
2023-04-10T11:09:03.446Z,11
2023-04-10T11:10:02.938Z,11
2023-04-10T11:11:03.097Z,11
2023-04-10T11:12:02.941Z,11
2023-04-10T11:13:02.867Z,11
2023-04-10T11:14:02.916Z,11
2023-04-10T11:15:03.181Z,12
2023-04-10T11:16:03.118Z,12
2023-04-10T11:17:03.590Z,12
2023-04-10T11:18:02.856Z,12
2023-04-10T11:19:14.140Z,12
2023-04-10T11:20:03.095Z,12
2023-04-10T11:21:03.066Z,12
2023-04-10T11:22:03.192Z,12
2023-04-10T11:23:03.263Z,12
2023-04-10T11:24:03.401Z,12
2023-04-10T11:25:02.971Z,12
2023-04-10T11:26:03.158Z,12
2023-04-10T11:27:02.488Z,12
2023-04-10T11:28:02.252Z,12
2023-04-10T11:29:02.241Z,12
2023-04-10T11:30:02.220Z,12
2023-04-10T11:31:02.452Z,12
2023-04-10T11:32:02.595Z,12
2023-04-10T11:33:02.773Z,12
2023-04-10T11:34:02.164Z,12
2023-04-10T11:35:04.850Z,12
2023-04-10T11:36:02.673Z,12
2023-04-10T11:37:03.252Z,12
2023-04-10T11:38:03.291Z,12
2023-04-10T11:39:03.139Z,12
2023-04-10T11:40:02.829Z,12
2023-04-10T11:41:03.004Z,12
2023-04-10T11:42:02.827Z,12
2023-04-10T11:43:02.806Z,12
2023-04-10T11:44:02.839Z,12
2023-04-10T11:45:02.900Z,12
2023-04-10T11:46:02.983Z,12
2023-04-10T11:47:02.943Z,12
2023-04-10T11:48:02.494Z,12
2023-04-10T11:49:02.528Z,12
2023-04-10T11:50:02.771Z,12
2023-04-10T11:51:03.126Z,12
2023-04-10T11:52:03.032Z,12
2023-04-10T11:53:03.220Z,12
2023-04-10T11:55:03.149Z,12
2023-04-10T11:56:02.555Z,12
2023-04-10T11:57:02.745Z,12
2023-04-10T11:58:02.844Z,12
2023-04-10T11:59:02.672Z,12
2023-04-10T12:00:02.946Z,12
2023-04-10T12:01:02.620Z,12
2023-04-10T12:02:03.201Z,12
2023-04-10T12:03:03.244Z,12
2023-04-10T12:04:03.449Z,12
2023-04-10T12:05:02.863Z,12
2023-04-10T12:06:03.186Z,12
2023-04-10T12:07:02.984Z,12
2023-04-10T12:08:03.008Z,12
2023-04-10T12:09:02.340Z,12
2023-04-10T12:10:02.368Z,12
2023-04-10T12:11:02.536Z,12
2023-04-10T12:12:02.634Z,12
2023-04-10T12:13:02.302Z,12
2023-04-10T12:14:02.472Z,12
2023-04-10T12:15:02.425Z,12
2023-04-10T12:16:02.531Z,12
2023-04-10T12:17:01.653Z,12
2023-04-10T12:18:02.254Z,12
2023-04-10T12:19:02.270Z,12
2023-04-10T12:20:02.197Z,12
2023-04-10T12:21:02.256Z,12
2023-04-10T12:22:02.096Z,12
2023-04-10T12:23:02.559Z,12
2023-04-10T12:24:02.636Z,12
2023-04-10T12:25:02.218Z,12
2023-04-10T12:26:02.272Z,12
2023-04-10T12:27:02.252Z,12
2023-04-10T12:28:02.677Z,12
2023-04-10T12:29:02.737Z,12
2023-04-10T12:30:02.772Z,12
2023-04-10T12:31:02.894Z,12
2023-04-10T12:32:02.781Z,12
2023-04-10T12:33:01.832Z,12
2023-04-10T12:34:02.176Z,12
2023-04-10T12:35:02.435Z,12
2023-04-10T12:36:02.005Z,12
2023-04-10T12:37:02.161Z,12
2023-04-10T12:38:02.670Z,12
2023-04-10T12:39:02.901Z,12
2023-04-10T12:40:02.463Z,12
2023-04-10T12:41:02.696Z,12
2023-04-10T12:42:02.751Z,12
2023-04-10T12:43:02.005Z,12
2023-04-10T12:44:02.061Z,12
2023-04-10T12:45:02.154Z,12
2023-04-10T12:46:02.223Z,12
2023-04-10T12:47:02.114Z,12
2023-04-10T12:48:03.020Z,12
2023-04-10T12:49:03.071Z,12
2023-04-10T12:50:02.935Z,12
2023-04-10T12:51:03.179Z,12
2023-04-10T12:52:03.138Z,12
2023-04-10T12:53:02.972Z,12
2023-04-10T12:54:03.058Z,12
2023-04-10T12:55:03.267Z,13
2023-04-10T12:56:03.058Z,12
2023-04-10T12:57:02.582Z,13
2023-04-10T12:58:02.565Z,13
2023-04-10T12:59:02.360Z,13
2023-04-10T13:00:02.597Z,13
2023-04-10T13:01:02.271Z,13
2023-04-10T13:02:02.682Z,13
2023-04-10T13:03:03.561Z,13
2023-04-10T13:04:03.355Z,13
2023-04-10T13:05:03.280Z,13
2023-04-10T13:06:03.503Z,13
2023-04-10T13:07:03.517Z,13
2023-04-10T13:08:03.600Z,13
2023-04-10T13:09:03.902Z,13
2023-04-10T13:10:03.253Z,13
2023-04-10T13:11:03.608Z,13
2023-04-10T13:12:03.266Z,13
2023-04-10T13:13:03.119Z,13
2023-04-10T13:14:03.190Z,13
2023-04-10T13:15:03.067Z,13
2023-04-10T13:16:03.189Z,13
2023-04-10T13:17:03.190Z,13
2023-04-10T13:18:05.820Z,13
2023-04-10T13:19:03.672Z,13
2023-04-10T13:20:03.777Z,13
2023-04-10T13:21:03.941Z,13
2023-04-10T13:22:03.811Z,13
2023-04-10T13:23:02.723Z,13
2023-04-10T13:24:02.839Z,13
2023-04-10T13:25:02.947Z,13
2023-04-10T13:26:03.046Z,13
2023-04-10T13:27:02.963Z,13
2023-04-10T13:28:03.047Z,13
2023-04-10T13:29:03.078Z,13
2023-04-10T13:30:03.014Z,13
2023-04-10T13:31:03.085Z,13
2023-04-10T13:32:02.936Z,13
2023-04-10T13:33:03.814Z,13
2023-04-10T13:34:03.775Z,13
2023-04-10T13:35:03.802Z,13
2023-04-10T13:36:03.896Z,13
2023-04-10T13:37:03.362Z,13
2023-04-10T13:38:03.079Z,13
2023-04-10T13:39:02.569Z,13
2023-04-10T13:40:02.719Z,13
2023-04-10T13:41:02.971Z,13
2023-04-10T13:42:03.113Z,13
2023-04-10T13:43:03.746Z,13
2023-04-10T13:44:03.647Z,13
2023-04-10T13:45:03.215Z,13
2023-04-10T13:46:03.434Z,13
2023-04-10T13:47:03.717Z,13
2023-04-10T13:48:03.998Z,13
2023-04-10T13:49:03.308Z,13
2023-04-10T13:50:03.501Z,13
2023-04-10T13:51:03.619Z,13
2023-04-10T13:52:03.758Z,13
2023-04-10T13:53:03.797Z,13
2023-04-10T13:54:03.934Z,13
2023-04-10T13:55:03.845Z,13
2023-04-10T13:56:03.728Z,13
2023-04-10T13:57:03.887Z,13
2023-04-10T13:58:02.962Z,13
2023-04-10T13:59:03.169Z,13
2023-04-10T14:00:03.337Z,13
2023-04-10T14:01:03.017Z,13
2023-04-10T14:02:03.365Z,13
2023-04-10T14:03:03.138Z,13
2023-04-10T14:04:03.560Z,13
2023-04-10T14:05:03.524Z,13
2023-04-10T14:06:03.395Z,13
2023-04-10T14:07:03.527Z,13
2023-04-10T14:08:03.554Z,13
2023-04-10T14:09:04.129Z,13
2023-04-10T14:10:04.012Z,13
2023-04-10T14:11:04.054Z,13
2023-04-10T14:12:03.514Z,13
2023-04-10T14:13:02.786Z,13
2023-04-10T14:14:02.977Z,13
2023-04-10T14:15:03.224Z,13
2023-04-10T14:16:02.765Z,13
2023-04-10T14:17:02.990Z,13
2023-04-10T14:18:03.246Z,13
2023-04-10T14:19:03.320Z,13
2023-04-10T14:20:03.436Z,13
2023-04-10T14:21:03.681Z,13
2023-04-10T14:22:03.819Z,13
2023-04-10T14:23:02.949Z,13
2023-04-10T14:24:03.169Z,13
2023-04-10T14:25:12.460Z,13
2023-04-10T14:26:03.448Z,13
2023-04-10T14:27:03.325Z,13
2023-04-10T14:28:03.572Z,13
2023-04-10T14:29:03.713Z,13
2023-04-10T14:30:03.934Z,13
2023-04-10T14:31:04.015Z,13
2023-04-10T14:32:03.559Z,13
2023-04-10T14:33:02.698Z,13
2023-04-10T14:34:02.798Z,13
2023-04-10T14:35:03.077Z,13
2023-04-10T14:36:03.343Z,13